Terminal Aerodrome Forecast
Issued by NWS

Home | Current Version | Previous Version | Text Only | Print | Product List | Glossary On
Versions: 1 2 3 4 5 6 7 8 9 10 11 12 13 14 15 16 17 18 19 20 21 22 23
000
FTUS44 KLZK 010500
TAFBPK
TAF
KBPK 010520Z 0106/0206 14003KT 5SM -FZRAPL BR OVC005
     FM011400 32005KT 5SM BR OVC007
     FM011800 34006KT 3SM BR OVC004=

USA.gov is the U.S. government's official web portal to all federal, state and local government web resources and services.